Time;durP1;ratioP1;P1;durP2;ratioP2;P2;SDS_P1;SDS_P2;PMS_P1;PMS_P2;Temp;Humidity;BMP_temperature;BMP_pressure;BME280_temperature;BME280_humidity;BME280_pressure;Samples;Min_cycle;Max_cycle;Signal;HPM_P1;HPM_P2
2023/01/18 00:05:39;;;;;;;5.97;3.90;;;;;;;19.34;50.35;93939.69;10584639;28;20521;-56
2023/01/18 00:11:11;;;;;;;5.20;3.95;;;;;;;19.32;50.38;93923.13;10584360;28;20074;-56
2023/01/18 00:16:30;;;;;;;5.53;3.72;;;;;;;19.31;50.24;93935.09;10584177;28;20510;-56
2023/01/18 00:21:53;;;;;;;4.78;3.75;;;;;;;19.30;50.40;93925.44;10584340;28;20077;-56
2023/01/18 00:27:12;;;;;;;5.05;3.80;;;;;;;19.28;50.26;93931.22;10584225;28;20058;-56
2023/01/18 00:32:31;;;;;;;4.78;3.58;;;;;;;19.27;50.31;93928.94;10584110;28;20058;-56
2023/01/18 00:37:51;;;;;;;5.15;3.85;;;;;;;19.26;50.43;93925.44;10583847;28;20089;-56
2023/01/18 00:48:50;;;;;;;4.28;3.58;;;;;;;-146.19;100.00;65364.44;10582843;28;20048;-56
2023/01/18 00:54:10;;;;;;;4.72;3.50;;;;;;;-146.19;100.00;65364.44;10583264;28;20408;-56
2023/01/18 00:59:29;;;;;;;4.22;3.50;;;;;;;-146.19;100.00;65364.44;10582029;28;20504;-56
2023/01/18 01:10:26;;;;;;;4.65;3.40;;;;;;;-146.19;100.00;65364.44;10582661;28;20087;-56
2023/01/18 01:27:02;;;;;;;4.07;3.15;;;;;;;-146.19;100.00;65364.44;10582070;28;20063;-56
2023/01/18 01:32:22;;;;;;;4.82;3.40;;;;;;;-146.19;100.00;65364.44;10581815;28;20058;-56
2023/01/18 01:37:41;;;;;;;3.15;2.85;;;;;;;-146.19;100.00;65364.44;10581386;28;20055;-56
2023/01/18 01:43:00;;;;;;;3.90;3.08;;;;;;;-146.19;100.00;65364.44;10581589;28;20104;-56
2023/01/18 01:48:20;;;;;;;4.40;3.33;;;;;;;-146.19;100.00;65364.44;10581329;28;20514;-56
2023/01/18 01:53:39;;;;;;;3.33;2.97;;;;;;;-146.19;100.00;65364.44;10594933;28;20375;-56
2023/01/18 01:59:00;;;;;;;3.95;3.05;;;;;;;-146.19;100.00;65364.44;10581096;28;20047;-56
2023/01/18 02:04:20;;;;;;;3.45;2.83;;;;;;;-146.19;100.00;65364.44;10565280;28;20063;-56
2023/01/18 02:09:40;;;;;;;3.83;2.85;;;;;;;-146.19;100.00;65364.44;10594598;28;20039;-56
2023/01/18 02:15:00;;;;;;;3.45;2.80;;;;;;;-146.19;100.00;65364.44;10580192;28;20444;-56
2023/01/18 02:20:43;;;;;;;3.20;2.90;;;;;;;-146.19;100.00;65364.44;10580024;28;20491;-56
2023/01/18 02:26:26;;;;;;;3.38;2.70;;;;;;;-146.19;100.00;65364.44;10565274;28;20063;-56
2023/01/18 02:32:05;;;;;;;2.80;2.40;;;;;;;-146.19;100.00;65364.44;10580525;28;20047;-56
2023/01/18 02:37:45;;;;;;;3.20;2.63;;;;;;;-146.19;100.00;65364.44;10580367;28;20376;-56
2023/01/18 02:48:46;;;;;;;3.00;2.70;;;;;;;-146.19;100.00;65364.44;10543294;28;20052;-56
2023/01/18 02:54:08;;;;;;;3.08;2.75;;;;;;;-146.19;100.00;65364.44;10558328;28;20105;-56
2023/01/18 02:59:32;;;;;;;3.97;2.58;;;;;;;-146.19;100.00;65364.44;10545555;28;20059;-55
2023/01/18 03:04:55;;;;;;;3.08;2.42;;;;;;;-146.19;100.00;65364.44;10545387;28;20052;-56
2023/01/18 03:10:15;;;;;;;2.78;2.50;;;;;;;-146.19;100.00;65364.44;10558763;28;20048;-56
2023/01/18 03:15:41;;;;;;;2.95;2.42;;;;;;;-146.19;100.00;65364.44;10545094;28;20068;-56
2023/01/18 03:21:04;;;;;;;3.42;2.47;;;;;;;-146.19;100.00;65364.44;10544743;28;20052;-56
2023/01/18 03:26:24;;;;;;;3.47;2.40;;;;;;;-146.19;100.00;65364.44;10544675;28;20052;-56
2023/01/18 03:37:32;;;;;;;3.25;2.47;;;;;;;-146.19;100.00;65364.44;10557554;28;20040;-56
2023/01/18 03:43:02;;;;;;;2.85;2.35;;;;;;;-146.19;100.00;65364.44;10542325;28;20484;-56
2023/01/18 03:48:21;;;;;;;2.53;2.22;;;;;;;19.25;50.43;93926.63;10542124;28;20060;-56
2023/01/18 03:53:59;;;;;;;2.63;2.10;;;;;;;18.75;50.18;93903.22;10543473;28;20052;-56
2023/01/18 03:59:20;;;;;;;2.40;2.20;;;;;;;18.74;50.03;93906.31;10542146;28;20114;-56
2023/01/18 04:04:39;;;;;;;2.30;2.10;;;;;;;18.72;49.94;93920.19;10543325;28;20055;-56
2023/01/18 04:09:59;;;;;;;2.38;2.17;;;;;;;18.71;50.07;93921.31;10542550;28;20561;-56
2023/01/18 04:15:19;;;;;;;2.10;1.85;;;;;;;18.70;50.01;93943.28;10542818;28;20063;-56
2023/01/18 04:20:38;;;;;;;2.25;2.05;;;;;;;18.68;49.95;93945.59;10542612;28;20052;-56
2023/01/18 04:25:58;;;;;;;2.45;2.15;;;;;;;18.67;49.91;93944.06;10542534;28;20059;-56
2023/01/18 04:31:17;;;;;;;2.70;2.05;;;;;;;18.66;50.02;93934.44;10542263;28;20082;-56
2023/01/18 04:36:36;;;;;;;2.55;2.30;;;;;;;18.64;49.93;93932.16;10541794;28;20083;-56
2023/01/18 04:41:56;;;;;;;2.20;2.00;;;;;;;18.63;49.86;93927.91;10541557;28;20052;-56
2023/01/18 04:47:15;;;;;;;2.30;2.10;;;;;;;18.61;49.95;93924.81;10572225;28;20070;-56
2023/01/18 04:52:35;;;;;;;2.28;2.08;;;;;;;18.60;49.92;93928.66;10582448;28;20507;-55
2023/01/18 04:57:58;;;;;;;2.13;1.90;;;;;;;18.60;49.82;93938.69;10582557;28;20055;-56
2023/01/18 05:03:17;;;;;;;2.10;1.90;;;;;;;18.58;49.83;93941.75;10567033;28;20495;-56
2023/01/18 05:08:40;;;;;;;2.10;1.90;;;;;;;18.57;49.79;93951.00;10581675;28;20055;-56
2023/01/18 05:14:00;;;;;;;2.00;1.80;;;;;;;18.55;49.72;93956.78;10582508;28;20056;-56
2023/01/18 05:19:19;;;;;;;2.58;1.90;;;;;;;18.53;49.86;93951.00;10582184;28;20097;-56
2023/01/18 05:24:39;;;;;;;2.55;1.98;;;;;;;18.54;49.97;93949.06;10582186;28;20051;-55
2023/01/18 05:29:58;;;;;;;2.22;2.00;;;;;;;18.54;50.03;93970.66;10581947;28;20449;-56
2023/01/18 05:35:18;;;;;;;2.00;1.75;;;;;;;18.53;50.06;93974.50;10581761;28;20058;-56
2023/01/18 05:40:38;;;;;;;1.90;1.80;;;;;;;18.53;50.02;93986.06;10581576;28;20051;-57
2023/01/18 05:45:57;;;;;;;2.08;1.70;;;;;;;18.55;50.16;93994.53;10580912;28;20064;-57
2023/01/18 05:51:17;;;;;;;1.95;1.75;;;;;;;18.56;50.71;93992.59;10580825;28;20100;-56
2023/01/18 05:56:36;;;;;;;2.45;2.25;;;;;;;18.57;50.02;93992.22;10581281;28;20063;-56
2023/01/18 06:01:55;;;;;;;2.30;2.10;;;;;;;18.58;49.95;93985.69;10580968;28;20048;-56
2023/01/18 06:07:15;;;;;;;2.75;1.75;;;;;;;18.59;49.93;93991.84;10580405;28;20562;-56
2023/01/18 06:12:35;;;;;;;3.92;2.10;;;;;;;18.61;50.05;93994.16;10580213;28;20052;-56
2023/01/18 06:17:56;;;;;;;9.82;2.58;;;;;;;18.63;50.17;94006.09;10579892;28;20040;-56
2023/01/18 06:23:16;;;;;;;2.75;1.95;;;;;;;18.65;50.15;94011.88;10587448;28;20507;-56
2023/01/18 06:28:35;;;;;;;7.65;2.90;;;;;;;18.67;49.97;94022.28;10588973;28;20059;-55
2023/01/18 06:33:54;;;;;;;11.38;3.25;;;;;;;18.67;50.02;94023.03;10588844;28;20051;-57
2023/01/18 06:39:14;;;;;;;9.25;3.10;;;;;;;18.70;50.06;94027.66;10588699;28;20060;-55
2023/01/18 06:44:33;;;;;;;26.50;3.70;;;;;;;18.70;49.95;94033.06;10588199;28;20048;-57
2023/01/18 06:49:54;;;;;;;9.88;3.13;;;;;;;18.73;50.11;94032.28;10587631;28;20058;-56
2023/01/18 06:55:14;;;;;;;8.63;3.58;;;;;;;18.74;50.03;94050.00;10588104;28;20108;-55
2023/01/18 07:00:34;;;;;;;8.02;3.13;;;;;;;18.77;50.20;94065.41;10587742;28;20047;-57
2023/01/18 07:05:59;;;;;;;8.43;3.22;;;;;;;18.78;50.07;94077.00;10587615;28;20051;-57
2023/01/18 07:11:18;;;;;;;7.95;3.20;;;;;;;18.80;50.14;94085.50;10587501;28;20055;-57
2023/01/18 07:16:38;;;;;;;7.90;3.08;;;;;;;18.82;50.07;94093.19;10587185;28;20056;-57
2023/01/18 07:21:58;;;;;;;8.27;3.33;;;;;;;18.84;49.96;94099.75;10587002;28;20055;-57
2023/01/18 07:27:17;;;;;;;5.82;2.83;;;;;;;18.88;50.09;94118.63;10557424;28;20056;-57
2023/01/18 07:32:37;;;;;;;7.75;3.13;;;;;;;18.90;50.08;94119.78;10585834;28;20082;-57
2023/01/18 07:37:57;;;;;;;6.40;3.20;;;;;;;18.91;50.13;94126.72;10585946;28;20456;-57
2023/01/18 07:43:17;;;;;;;7.63;3.00;;;;;;;18.94;50.05;94138.69;10585525;28;20572;-57
2023/01/18 07:48:36;;;;;;;8.73;3.20;;;;;;;18.97;50.13;94140.59;10501821;28;20045;-56
2023/01/18 07:53:56;;;;;;;5.60;2.80;;;;;;;18.99;50.13;94146.38;10501351;28;20052;-57
2023/01/18 07:59:16;;;;;;;6.45;3.00;;;;;;;19.00;50.02;94137.13;10514743;28;20056;-57
2023/01/18 08:04:35;;;;;;;5.53;2.83;;;;;;;19.04;49.99;94140.59;10514672;28;20106;-56
2023/01/18 08:09:56;;;;;;;6.10;2.80;;;;;;;19.05;49.85;94139.47;10501087;28;20048;-57
2023/01/18 08:15:16;;;;;;;6.78;3.38;;;;;;;19.08;49.91;94137.91;10514212;28;20539;-56
2023/01/18 08:20:35;;;;;;;5.18;2.60;;;;;;;19.10;49.79;94141.75;10513963;28;20040;-56
2023/01/18 08:25:59;;;;;;;5.40;2.35;;;;;;;19.12;49.80;94139.44;10500385;28;20052;-57
2023/01/18 08:31:20;;;;;;;7.03;2.78;;;;;;;19.13;49.77;94146.41;10499719;28;20048;-57
2023/01/18 08:36:39;;;;;;;68.28;36.65;;;;;;;19.17;49.65;94155.25;10499385;28;20113;-57
2023/01/18 08:41:59;;;;;;;40.40;20.95;;;;;;;19.22;49.56;94159.50;10499730;28;20041;-56
2023/01/18 08:47:18;;;;;;;31.73;18.17;;;;;;;19.23;49.51;94166.44;10566031;28;20059;-57
2023/01/18 08:52:38;;;;;;;30.45;15.80;;;;;;;19.25;49.60;94172.22;10583435;28;20058;-57
2023/01/18 08:57:58;;;;;;;29.13;15.50;;;;;;;19.27;49.74;94185.34;10583166;28;20044;-56
2023/01/18 09:03:19;;;;;;;26.20;15.43;;;;;;;19.29;49.58;94188.44;10583094;28;20093;-57
2023/01/18 09:08:39;;;;;;;24.38;12.95;;;;;;;19.31;49.47;94208.47;10582952;28;20047;-57
2023/01/18 09:13:58;;;;;;;23.83;12.93;;;;;;;19.33;49.52;94219.66;10596285;28;20042;-57
2023/01/18 09:19:18;;;;;;;22.45;12.23;;;;;;;19.34;49.44;94234.69;10581799;28;20048;-57
2023/01/18 09:24:37;;;;;;;20.48;12.10;;;;;;;19.37;49.32;94246.66;10582207;28;20059;-56
2023/01/18 09:29:57;;;;;;;20.60;11.60;;;;;;;19.39;49.30;94259.78;10595434;28;20498;-56
2023/01/18 09:35:17;;;;;;;18.13;10.95;;;;;;;19.42;49.10;94273.25;10581635;28;20056;-56
2023/01/18 09:40:46;;;;;;;19.85;10.38;;;;;;;19.43;49.13;94282.91;10595128;28;20040;-57
2023/01/18 09:46:19;;;;;;;17.02;10.20;;;;;;;19.45;48.44;94298.75;10581113;28;20062;-57
2023/01/18 09:51:47;;;;;;;15.73;8.93;;;;;;;19.47;48.83;94297.19;10581597;28;20054;-56
2023/01/18 09:57:36;;;;;;;16.23;9.40;;;;;;;19.49;48.39;94297.59;10565744;28;20051;-57
2023/01/18 10:03:00;;;;;;;14.32;8.85;;;;;;;19.51;48.78;94299.91;10566038;28;20097;-56
2023/01/18 10:08:24;;;;;;;14.05;8.18;;;;;;;19.52;48.58;94304.94;10594920;28;20155;-56
2023/01/18 10:14:25;;;;;;;14.10;8.95;;;;;;;19.54;48.69;94308.00;10565812;28;20047;-56
2023/01/18 10:19:45;;;;;;;15.98;9.18;;;;;;;19.55;48.60;94311.47;10518286;28;20044;-57
2023/01/18 10:25:14;;;;;;;13.55;8.30;;;;;;;19.58;48.63;94312.63;10580861;28;20058;-57
2023/01/18 10:31:02;;;;;;;14.13;8.50;;;;;;;19.60;48.52;94307.63;10580817;28;20074;-56
2023/01/18 10:36:37;;;;;;;13.67;8.47;;;;;;;19.63;48.71;94323.06;10579108;28;20051;-55
2023/01/18 10:41:59;;;;;;;13.00;7.97;;;;;;;19.63;48.70;94318.44;10580355;28;20047;-55
2023/01/18 10:47:19;;;;;;;13.38;8.32;;;;;;;19.64;48.66;94330.00;10579712;28;20059;-57
2023/01/18 10:52:39;;;;;;;10.98;7.60;;;;;;;19.65;48.80;94326.91;10593843;28;20046;-56
2023/01/18 10:57:58;;;;;;;11.60;7.95;;;;;;;19.65;48.73;94334.25;10580145;28;20078;-57
2023/01/18 11:03:18;;;;;;;11.90;7.45;;;;;;;19.66;48.69;94350.09;10580100;28;20048;-57
2023/01/18 11:08:37;;;;;;;11.48;7.15;;;;;;;19.66;48.84;94354.69;10597749;28;20040;-56
2023/01/18 11:13:57;;;;;;;12.27;7.47;;;;;;;19.66;48.81;94368.19;10587091;28;20560;-56
2023/01/18 11:19:17;;;;;;;10.90;7.57;;;;;;;19.66;48.85;94373.59;10587548;28;20058;-56
2023/01/18 11:24:37;;;;;;;10.60;6.65;;;;;;;19.66;48.59;94374.41;10586840;28;20085;-57
2023/01/18 11:29:57;;;;;;;11.23;7.00;;;;;;;19.66;48.59;94379.00;10585420;28;20047;-57
2023/01/18 11:35:33;;;;;;;10.68;6.90;;;;;;;19.68;48.81;94380.19;10586702;28;20056;-55
2023/01/18 11:41:02;;;;;;;10.13;6.70;;;;;;;19.69;48.52;94381.72;10586652;28;20051;-57
2023/01/18 11:46:25;;;;;;;10.27;6.75;;;;;;;19.70;48.48;94388.69;10585650;28;20067;-57
2023/01/18 11:51:51;;;;;;;10.18;6.70;;;;;;;19.72;48.74;94396.44;10599799;28;20040;-57
2023/01/18 11:57:11;;;;;;;10.32;6.57;;;;;;;19.71;48.72;94408.34;10570690;28;20044;-57
2023/01/18 12:02:55;;;;;;;10.85;6.70;;;;;;;19.73;48.67;94423.03;10585866;28;20055;-57
2023/01/18 12:08:39;;;;;;;9.70;6.55;;;;;;;19.74;48.49;94434.63;10584298;28;20043;-57
2023/01/18 12:14:02;;;;;;;8.93;6.63;;;;;;;19.73;46.00;94435.78;10569093;28;20407;-58
2023/01/18 12:19:33;;;;;;;9.10;6.82;;;;;;;19.73;47.39;94435.78;10568257;28;20054;-57
2023/01/18 12:25:18;;;;;;;8.95;6.30;;;;;;;19.75;47.66;94445.03;10584555;28;20055;-57
2023/01/18 12:30:50;;;;;;;20.67;14.68;;;;;;;19.79;48.09;94452.41;10584512;28;20040;-57
2023/01/18 12:36:48;;;;;;;19.88;12.98;;;;;;;19.82;48.39;94465.91;10568531;28;20495;-56
2023/01/18 12:42:20;;;;;;;16.92;11.65;;;;;;;19.84;48.35;94474.41;10583892;28;20048;-57
2023/01/18 12:47:46;;;;;;;15.60;10.52;;;;;;;19.84;48.35;94479.81;10583147;28;20465;-57
2023/01/18 12:53:12;;;;;;;13.80;10.30;;;;;;;19.86;48.36;94488.31;10583323;28;20112;-57
2023/01/18 12:58:33;;;;;;;14.65;10.48;;;;;;;19.87;48.34;94489.84;10596815;28;20043;-57
2023/01/18 13:03:57;;;;;;;15.90;9.63;;;;;;;19.87;48.34;94489.84;10567901;28;20047;-56
2023/01/18 13:09:22;;;;;;;13.25;9.13;;;;;;;19.91;48.32;94501.44;10580902;28;20044;-56
2023/01/18 13:14:54;;;;;;;12.55;8.43;;;;;;;19.91;48.22;94509.53;10581078;28;20070;-57
2023/01/18 13:20:16;;;;;;;12.10;8.48;;;;;;;19.93;48.35;94509.97;10566665;28;20058;-57
2023/01/18 13:25:48;;;;;;;12.77;8.93;;;;;;;19.94;48.20;94522.28;10566726;28;20507;-57
2023/01/18 13:31:08;;;;;;;13.13;8.50;;;;;;;19.95;48.32;94537.38;10581861;28;20059;-57
2023/01/18 13:36:27;;;;;;;11.98;8.23;;;;;;;19.97;48.31;94544.31;10581584;28;20051;-57
2023/01/18 13:42:08;;;;;;;29.92;8.48;;;;;;;19.99;48.16;94556.28;10581718;28;20079;-57
2023/01/18 13:47:34;;;;;;;10.45;7.70;;;;;;;20.00;47.47;94562.47;10581105;28;20427;-58
2023/01/18 13:53:12;;;;;;;8.82;6.55;;;;;;;20.02;48.27;94563.63;10581571;28;20059;-58
2023/01/18 13:58:33;;;;;;;12.77;7.45;;;;;;;20.02;48.29;94573.69;10581034;28;20051;-58
2023/01/18 14:03:53;;;;;;;13.18;8.27;;;;;;;20.03;48.18;94577.91;10581372;28;20121;-58
2023/01/18 14:09:15;;;;;;;12.40;7.53;;;;;;;20.04;48.36;94593.00;10565552;28;20117;-57
2023/01/18 14:14:55;;;;;;;14.15;7.65;;;;;;;20.05;48.13;94610.75;10581134;28;20048;-58
2023/01/18 14:20:27;;;;;;;14.65;7.75;;;;;;;20.06;48.12;94629.28;10579372;28;20043;-58
2023/01/18 14:26:05;;;;;;;16.77;8.63;;;;;;;20.07;48.10;94638.16;10581110;28;20055;-58
2023/01/18 14:31:29;;;;;;;16.55;8.00;;;;;;;20.07;48.35;94647.06;10580748;28;20087;-58
2023/01/18 14:36:49;;;;;;;14.02;7.72;;;;;;;20.08;48.05;94651.31;10580540;28;20102;-57
2023/01/18 14:42:11;;;;;;;15.43;8.02;;;;;;;20.10;48.22;94665.22;10584080;28;20059;-57
2023/01/18 14:47:32;;;;;;;12.90;7.55;;;;;;;20.10;48.38;94662.50;10587890;28;20055;-57
2023/01/18 14:52:52;;;;;;;13.30;7.03;;;;;;;20.11;48.34;94668.69;10602061;28;20471;-58
2023/01/18 14:58:14;;;;;;;13.65;7.20;;;;;;;20.12;48.45;94678.34;10588138;28;20052;-58
2023/01/18 15:03:35;;;;;;;13.70;7.45;;;;;;;20.12;48.34;94681.06;10572642;28;20047;-57
2023/01/18 15:08:55;;;;;;;12.23;6.93;;;;;;;20.12;48.41;94686.47;10587956;28;20047;-57
2023/01/18 15:14:20;;;;;;;13.68;6.93;;;;;;;20.16;48.27;94698.06;10587737;28;20052;-57
2023/01/18 15:19:44;;;;;;;13.13;7.22;;;;;;;20.14;48.17;94706.56;10600773;28;20479;-58
2023/01/18 15:25:06;;;;;;;12.90;7.10;;;;;;;20.16;48.52;94717.00;10586366;28;20056;-58
2023/01/18 15:30:26;;;;;;;12.13;6.32;;;;;;;20.17;48.69;94733.97;10571619;28;20052;-58
2023/01/18 15:35:48;;;;;;;10.30;6.22;;;;;;;20.18;48.67;94743.66;10585748;28;20059;-57
2023/01/18 15:41:10;;;;;;;10.70;6.05;;;;;;;20.19;48.25;94748.69;10570752;28;20043;-59
2023/01/18 15:46:36;;;;;;;11.90;7.15;;;;;;;20.20;48.23;94758.34;10596533;27;20449;-58
2023/01/18 15:51:56;;;;;;;9.80;6.47;;;;;;;20.22;48.77;94763.38;10585780;27;20054;-58
2023/01/18 15:57:18;;;;;;;8.75;5.78;;;;;;;20.24;48.71;94766.47;10621133;27;20487;-58
2023/01/18 16:02:41;;;;;;;9.70;6.05;;;;;;;20.25;48.85;94771.50;10586332;27;20051;-57
2023/01/18 16:08:18;;;;;;;10.88;6.38;;;;;;;20.26;48.88;94783.84;10584899;27;20044;-58
2023/01/18 16:13:41;;;;;;;11.80;5.60;;;;;;;20.27;49.00;94788.13;10606035;27;20058;-57
2023/01/18 16:19:12;;;;;;;8.55;6.05;;;;;;;20.28;49.07;94789.66;10620918;27;20048;-58
2023/01/18 16:24:56;;;;;;;89.30;52.70;;;;;;;20.29;48.86;94802.03;10619224;27;20047;-59
2023/01/18 16:30:22;;;;;;;46.13;25.38;;;;;;;20.30;48.91;94808.22;10599313;27;20043;-57
2023/01/18 16:35:43;;;;;;;29.98;20.63;;;;;;;20.29;48.84;94806.69;10605076;27;20803;-57
2023/01/18 16:41:02;;;;;;;31.08;17.63;;;;;;;20.30;48.73;94819.03;10601950;27;20383;-56
2023/01/18 16:46:22;;;;;;;22.38;15.38;;;;;;;20.30;48.80;94825.22;10603972;27;20050;-58
2023/01/18 16:51:42;;;;;;;26.00;14.77;;;;;;;20.32;48.90;94833.72;10590597;27;20491;-57
2023/01/18 16:57:01;;;;;;;21.65;13.80;;;;;;;20.30;48.88;94836.03;10594127;27;20062;-57
2023/01/18 17:02:20;;;;;;;21.63;13.48;;;;;;;20.31;48.69;94843.00;10582478;28;20444;-57
2023/01/18 17:07:41;;;;;;;20.60;12.57;;;;;;;20.30;48.83;94841.44;10581819;28;20051;-58
2023/01/18 17:13:00;;;;;;;20.42;12.18;;;;;;;20.30;48.96;94852.25;10588226;27;20137;-57
2023/01/18 17:18:24;;;;;;;46.50;26.00;;;;;;;20.30;49.55;94857.66;10601518;27;20040;-59
2023/01/18 17:23:44;;;;;;;50.28;30.88;;;;;;;20.32;49.37;94857.28;10598565;27;20060;-60
2023/01/18 17:29:04;;;;;;;48.85;27.63;;;;;;;20.32;49.61;94866.16;10590349;27;20407;-60
2023/01/18 17:34:24;;;;;;;44.60;25.45;;;;;;;20.32;49.86;94858.06;10592812;27;20044;-57
2023/01/18 17:39:44;;;;;;;38.75;22.15;;;;;;;20.33;49.87;94867.75;10606705;27;20047;-58
2023/01/18 17:45:05;;;;;;;38.42;20.17;;;;;;;20.34;49.44;94887.44;10623097;27;20050;-58
2023/01/18 17:50:26;;;;;;;29.35;19.00;;;;;;;20.33;49.56;94900.19;10623955;27;20070;-58
2023/01/18 17:55:45;;;;;;;32.08;19.00;;;;;;;20.34;49.46;94907.13;10623610;27;20058;-58
2023/01/18 18:01:09;;;;;;;29.20;17.17;;;;;;;20.35;49.44;94930.34;10623610;27;20074;-58
2023/01/18 18:06:31;;;;;;;27.38;17.33;;;;;;;20.36;49.60;94941.91;10637467;27;20418;-58
2023/01/18 18:11:51;;;;;;;24.23;15.10;;;;;;;20.36;49.54;94952.75;10622549;28;20043;-57
2023/01/18 18:17:10;;;;;;;28.42;16.73;;;;;;;20.38;49.66;94960.47;10640661;27;20051;-56
2023/01/18 18:22:30;;;;;;;28.80;17.25;;;;;;;20.40;50.08;94974.41;10630819;27;20051;-56
2023/01/18 18:27:49;;;;;;;31.10;17.35;;;;;;;20.41;50.56;94981.38;10631195;27;20417;-56
2023/01/18 18:33:09;;;;;;;29.23;16.17;;;;;;;20.43;50.98;94989.91;10645340;27;20402;-57
2023/01/18 18:38:28;;;;;;;29.33;17.30;;;;;;;20.44;51.26;94996.84;10631440;27;20058;-58
2023/01/18 18:43:48;;;;;;;33.55;17.85;;;;;;;20.46;51.53;95000.72;10631083;27;20055;-58
2023/01/18 18:49:07;;;;;;;49.97;22.00;;;;;;;20.47;52.35;95012.34;10644131;27;20043;-56
2023/01/18 18:54:27;;;;;;;56.30;26.05;;;;;;;20.49;53.08;95015.47;10629728;27;20460;-56
2023/01/18 18:59:47;;;;;;;58.38;28.13;;;;;;;20.50;53.31;95023.19;10629559;27;20050;-60
2023/01/18 19:05:07;;;;;;;78.00;30.45;;;;;;;20.52;53.92;95047.16;10629153;27;20047;-60
2023/01/18 19:10:29;;;;;;;85.25;33.25;;;;;;;20.54;54.64;95061.09;10629508;27;20047;-60
2023/01/18 19:15:49;;;;;;;73.95;30.55;;;;;;;20.57;55.27;95071.16;10643138;27;20050;-56
2023/01/18 19:21:09;;;;;;;69.47;29.40;;;;;;;20.57;55.02;95076.59;10614430;27;20047;-55
2023/01/18 19:26:28;;;;;;;59.67;26.42;;;;;;;20.56;54.72;95080.44;10628817;27;20054;-54
2023/01/18 19:31:48;;;;;;;53.50;22.90;;;;;;;20.56;54.40;95096.66;10629214;27;20127;-55
2023/01/18 19:37:07;;;;;;;52.55;23.55;;;;;;;20.55;54.13;95103.22;10642462;27;20054;-53
2023/01/18 19:42:27;;;;;;;54.78;23.75;;;;;;;20.53;53.83;95114.41;10642729;27;20039;-56
2023/01/18 19:47:47;;;;;;;48.75;22.30;;;;;;;20.53;53.62;95121.75;10628539;27;20419;-56
2023/01/18 19:53:07;;;;;;;47.90;21.48;;;;;;;20.52;53.44;95137.22;10628058;27;20548;-56
2023/01/18 19:58:28;;;;;;;46.80;21.00;;;;;;;20.52;53.28;95136.41;10628035;27;20395;-55
2023/01/18 20:03:48;;;;;;;43.08;19.85;;;;;;;20.51;53.00;95143.00;10626721;27;20047;-54
2023/01/18 20:09:08;;;;;;;37.83;19.35;;;;;;;20.50;52.80;95144.13;10626826;27;20055;-57
2023/01/18 20:14:28;;;;;;;38.53;18.25;;;;;;;20.50;52.34;95152.25;10612333;27;20055;-55
2023/01/18 20:19:49;;;;;;;37.60;18.42;;;;;;;20.50;52.63;95152.25;10626484;27;20621;-57
2023/01/18 20:25:10;;;;;;;35.28;18.33;;;;;;;20.48;52.46;95151.84;10641076;27;20444;-57
2023/01/18 20:30:29;;;;;;;34.65;17.00;;;;;;;20.47;52.26;95144.88;10640606;27;20039;-55
2023/01/18 20:35:51;;;;;;;34.30;17.70;;;;;;;20.45;52.19;95128.25;10611320;27;20051;-56
2023/01/18 20:41:10;;;;;;;26.45;14.05;;;;;;;20.45;52.75;95139.06;10625817;27;20047;-57
2023/01/18 20:46:30;;;;;;;25.33;12.93;;;;;;;20.46;52.64;95135.97;10631496;27;20062;-61
2023/01/18 20:51:49;;;;;;;28.23;14.18;;;;;;;20.44;52.43;95142.91;10626261;27;20434;-62
2023/01/18 20:57:09;;;;;;;29.08;14.10;;;;;;;20.43;52.05;95163.78;10624419;27;20047;-60
2023/01/18 21:02:29;;;;;;;25.08;12.98;;;;;;;20.42;51.78;95183.06;10625824;27;20047;-57
2023/01/18 21:07:48;;;;;;;24.60;13.18;;;;;;;20.41;51.27;95195.81;10625055;27;20534;-56
2023/01/18 21:13:09;;;;;;;23.17;12.80;;;;;;;20.38;50.87;95203.88;10609040;27;20055;-57
2023/01/18 21:18:31;;;;;;;24.02;13.20;;;;;;;20.37;50.94;95237.50;10624481;27;20047;-57
2023/01/18 21:23:50;;;;;;;23.85;12.98;;;;;;;20.34;50.89;95252.53;10624096;27;20495;-57
2023/01/18 21:29:10;;;;;;;24.20;12.68;;;;;;;20.33;50.85;95265.28;10637994;27;20136;-56
2023/01/18 21:34:30;;;;;;;22.70;12.63;;;;;;;20.31;50.80;95266.78;10624070;27;20495;-57
2023/01/18 21:39:49;;;;;;;21.63;12.50;;;;;;;20.29;50.66;95283.38;10623979;27;20418;-57
2023/01/18 21:56:26;;;;;;;22.23;11.13;;;;;;;20.25;50.65;95309.59;10623806;27;20100;-57
2023/01/18 22:01:46;;;;;;;19.25;10.90;;;;;;;20.23;50.59;95311.09;10623681;27;20055;-57
2023/01/18 22:07:06;;;;;;;19.17;11.35;;;;;;;20.21;50.70;95311.47;10623636;28;20051;-57
2023/01/18 22:12:26;;;;;;;19.20;10.77;;;;;;;20.20;50.71;95298.31;10636539;27;20047;-56
2023/01/18 22:17:45;;;;;;;17.55;10.32;;;;;;;20.18;50.73;95301.38;10637225;27;20422;-57
2023/01/18 22:23:05;;;;;;;19.27;10.63;;;;;;;20.16;50.67;95322.59;10623442;28;20058;-56
2023/01/18 22:28:24;;;;;;;18.13;10.45;;;;;;;20.14;50.68;95330.28;10622587;28;20513;-57
2023/01/18 22:33:44;;;;;;;17.58;9.50;;;;;;;20.13;50.71;95336.81;10623284;28;20066;-56
2023/01/18 22:39:03;;;;;;;16.33;10.10;;;;;;;20.11;50.55;95347.22;10623175;28;20054;-57
2023/01/18 22:44:23;;;;;;;18.23;10.25;;;;;;;20.09;50.75;95361.13;10633652;27;20525;-57
2023/01/18 22:49:42;;;;;;;16.30;9.95;;;;;;;20.08;50.67;95375.00;10622745;28;20071;-57
2023/01/18 22:55:01;;;;;;;16.98;9.95;;;;;;;20.06;50.89;95366.47;10622065;28;20591;-57
2023/01/18 23:00:21;;;;;;;16.30;9.40;;;;;;;20.05;50.73;95376.50;10603741;28;20054;-57
2023/01/18 23:05:41;;;;;;;16.58;9.98;;;;;;;20.02;50.57;95373.72;10630082;27;20051;-56
2023/01/18 23:11:00;;;;;;;16.90;8.57;;;;;;;20.01;50.54;95381.03;10629306;27;20510;-57
2023/01/18 23:21:58;;;;;;;12.80;8.60;;;;;;;19.97;50.56;95392.94;10643735;27;20406;-57
2023/01/18 23:27:18;;;;;;;15.25;8.85;;;;;;;19.95;50.61;95404.91;10629856;27;20078;-57
2023/01/18 23:32:37;;;;;;;15.00;8.50;;;;;;;19.93;50.46;95392.88;10629584;27;20059;-57
2023/01/18 23:37:56;;;;;;;13.60;8.60;;;;;;;19.93;50.44;95398.28;10642892;27;20068;-57
2023/01/18 23:54:32;;;;;;;12.02;8.05;;;;;;;19.86;50.35;95401.66;10557374;28;20044;-57
2023/01/18 23:59:51;;;;;;;11.68;7.93;;;;;;;19.84;50.34;95406.66;10543753;28;20055;-57
